Atwater, California
Current Conditions -  °F | °C
As of 1:55 AM on Sunday 23 Nov 2014 (Local Time) from KMER Reporting Station
Broken Clouds Broken Clouds  
Wind Chill: 11°   Ceiling: 400
Heat Index: 11°   Visibility: 5mi
Dew Point: 11°   Wind: 18mph
Humidity: 100%   Direction: 360°N
Pressure: 30.19"   Gusts: NA
Location:  37.35°N, 120.6°W
Report Text: KMER 230955Z AUTO 36016KT 5SM BKN004 11/11 A3019 RMK AO1
Loading
Personal Weather Stations






























Interactive Weather Map New forecast layout! Learn more

10-Day Weather Forecast

Advertisements
Track Severe Weather on mobile